Time,TemperatureF,DewpointF,PressureIn,WindDirection,WindDirectionDegrees,WindSpeedMPH,WindSpeedGustMPH,Humidity,HourlyPrecipIn,Conditions,Clouds,dailyrainin,SoftwareType,DateUTC
2013-08-10 00:00:00,67.9,65.8,29.71,SSW,213,3.0,8.0,93,0.00,,,0.39,Wunderground v.1.13,2013-08-10 04:00:00,
2013-08-10 00:30:00,67.6,65.2,29.72,SW,221,3.0,8.0,92,0.00,,,0.39,Wunderground v.1.13,2013-08-10 04:30:00,
2013-08-10 01:00:00,66.9,64.2,29.72,SW,224,2.0,2.0,91,0.00,,,0.00,Wunderground v.1.13,2013-08-10 05:00:00,
2013-08-10 01:30:00,66.6,61.9,29.73,SW,231,2.0,8.0,85,0.00,,,0.00,Wunderground v.1.13,2013-08-10 05:30:00,
2013-08-10 02:00:00,66.4,59.0,29.74,WSW,244,2.0,8.0,77,0.00,,,0.00,Wunderground v.1.13,2013-08-10 06:00:00,
2013-08-10 02:30:00,65.0,59.0,29.74,WSW,244,2.0,2.0,81,0.00,,,0.00,Wunderground v.1.13,2013-08-10 06:30:00,
2013-08-10 03:00:00,64.2,59.3,29.75,SSW,213,3.0,3.0,84,0.00,,,0.00,Wunderground v.1.13,2013-08-10 07:00:00,
2013-08-10 03:30:00,63.7,58.1,29.75,SW,214,3.0,8.0,82,0.00,,,0.00,Wunderground v.1.13,2013-08-10 07:30:00,
2013-08-10 04:00:00,64.2,56.5,29.77,WSW,242,3.0,3.0,76,0.00,,,0.00,Wunderground v.1.13,2013-08-10 08:00:00,
2013-08-10 04:30:00,64.7,55.5,29.78,NNW,344,2.0,2.0,72,0.00,,,0.00,Wunderground v.1.13,2013-08-10 08:30:00,
2013-08-10 05:00:00,63.4,55.0,29.80,WNW,282,2.0,2.0,74,0.00,,,0.00,Wunderground v.1.13,2013-08-10 09:00:00,
2013-08-10 05:30:00,62.4,54.0,29.81,WSW,257,1.0,1.0,74,0.00,,,0.00,Wunderground v.1.13,2013-08-10 09:30:00,
2013-08-10 06:00:00,61.3,52.2,29.82,WSW,253,2.0,8.0,72,0.00,,,0.00,Wunderground v.1.13,2013-08-10 10:00:00,
2013-08-10 06:30:00,60.7,52.0,29.84,West,267,2.0,8.0,73,0.00,,,0.00,Wunderground v.1.13,2013-08-10 10:30:00,
2013-08-10 07:00:00,60.5,51.4,29.85,NW,321,3.0,3.0,72,0.00,,,0.00,Wunderground v.1.13,2013-08-10 11:00:00,
2013-08-10 07:30:00,60.9,51.4,29.86,NW,321,3.0,3.0,71,0.00,,,0.00,Wunderground v.1.13,2013-08-10 11:30:00,
2013-08-10 08:00:00,62.3,51.6,29.87,NNW,346,3.0,8.0,68,0.00,,,0.00,Wunderground v.1.13,2013-08-10 12:00:00,
2013-08-10 08:30:00,62.9,51.0,29.88,WNW,291,3.0,8.0,65,0.00,,,0.00,Wunderground v.1.13,2013-08-10 12:30:00,
2013-08-10 09:00:00,62.6,50.7,29.89,WNW,294,4.0,4.0,65,0.00,,,0.00,Wunderground v.1.13,2013-08-10 13:00:00,
2013-08-10 09:30:00,63.4,51.0,29.90,WNW,290,2.0,8.0,64,0.00,,,0.00,Wunderground v.1.13,2013-08-10 13:30:00,
2013-08-10 10:00:00,64.0,50.7,29.91,WSW,244,3.0,3.0,62,0.00,,,0.00,Wunderground v.1.13,2013-08-10 14:00:00,
2013-08-10 10:30:00,64.8,49.7,29.91,West,264,3.0,3.0,58,0.00,,,0.00,Wunderground v.1.13,2013-08-10 14:30:00,
2013-08-10 11:00:00,65.6,50.9,29.91,WNW,295,3.0,3.0,59,0.00,,,0.00,Wunderground v.1.13,2013-08-10 15:00:00,
2013-08-10 11:30:00,66.8,50.6,29.91,SSW,195,4.0,4.0,56,0.00,,,0.00,Wunderground v.1.13,2013-08-10 15:30:00,
2013-08-10 12:00:00,67.8,49.5,29.92,West,273,4.0,9.0,52,0.00,,,0.00,Wunderground v.1.13,2013-08-10 16:00:00,
2013-08-10 12:30:00,68.8,48.9,29.91,SW,236,3.0,3.0,49,0.00,,,0.00,Wunderground v.1.13,2013-08-10 16:30:00,
2013-08-10 13:00:00,70.1,49.5,29.91,NW,304,3.0,3.0,48,0.00,,,0.00,Wunderground v.1.13,2013-08-10 17:00:00,
2013-08-10 13:30:00,70.6,49.4,29.91,NNW,330,3.0,3.0,47,0.00,,,0.00,Wunderground v.1.13,2013-08-10 17:30:00,
2013-08-10 14:00:00,71.3,49.4,29.91,WSW,252,4.0,8.0,46,0.00,,,0.00,Wunderground v.1.13,2013-08-10 18:00:00,
2013-08-10 14:30:00,72.5,48.7,29.91,SSW,211,4.0,4.0,43,0.00,,,0.00,Wunderground v.1.13,2013-08-10 18:30:00,
2013-08-10 15:00:00,71.8,47.5,29.92,SSE,166,3.0,3.0,42,0.00,,,0.00,Wunderground v.1.13,2013-08-10 19:00:00,
2013-08-10 15:30:00,72.0,48.3,29.92,WNW,295,3.0,3.0,43,0.00,,,0.00,Wunderground v.1.13,2013-08-10 19:30:00,
2013-08-10 16:00:00,72.5,48.7,29.92,WSW,257,3.0,8.0,43,0.00,,,0.00,Wunderground v.1.13,2013-08-10 20:00:00,
2013-08-10 16:30:00,73.2,48.1,29.91,NW,314,2.0,8.0,41,0.00,,,0.00,Wunderground v.1.13,2013-08-10 20:30:00,
2013-08-10 17:00:00,72.7,48.3,29.92,WNW,288,2.0,2.0,42,0.00,,,0.00,Wunderground v.1.13,2013-08-10 21:00:00,
2013-08-10 17:30:00,71.6,48.5,29.92,NW,305,3.0,3.0,44,0.00,,,0.00,Wunderground v.1.13,2013-08-10 21:30:00,
2013-08-10 18:00:00,72.1,47.7,29.92,WSW,258,2.0,2.0,42,0.00,,,0.00,Wunderground v.1.13,2013-08-10 22:00:00,
2013-08-10 18:30:00,72.1,48.4,29.92,West,278,1.0,8.0,43,0.00,,,0.00,Wunderground v.1.13,2013-08-10 22:30:00,
2013-08-10 19:00:00,72.0,48.9,29.92,West,271,1.0,8.0,44,0.00,,,0.00,Wunderground v.1.13,2013-08-10 23:00:00,
2013-08-10 19:30:00,70.1,50.6,29.92,SW,231,1.0,8.0,50,0.00,,,0.00,Wunderground v.1.13,2013-08-10 23:30:00,
2013-08-10 20:00:00,68.8,51.5,29.93,SW,231,0.0,8.0,54,0.00,,,0.00,Wunderground v.1.13,2013-08-11 00:00:00,
2013-08-10 20:30:00,65.8,53.3,29.93,SW,231,0.0,8.0,64,0.00,,,0.00,Wunderground v.1.13,2013-08-11 00:30:00,
2013-08-10 21:00:00,66.0,53.5,29.94,SW,231,0.0,8.0,64,0.00,,,0.00,Wunderground v.1.13,2013-08-11 01:00:00,
2013-08-10 21:30:00,66.1,54.0,29.95,SW,231,1.0,8.0,65,0.00,,,0.00,Wunderground v.1.13,2013-08-11 01:30:00,
2013-08-10 22:00:00,65.8,54.1,29.95,SW,227,1.0,8.0,66,0.00,,,0.00,Wunderground v.1.13,2013-08-11 02:00:00,
2013-08-10 22:30:00,65.5,54.2,29.95,SW,227,1.0,1.0,67,0.00,,,0.00,Wunderground v.1.13,2013-08-11 02:30:00,
2013-08-10 23:00:00,65.6,54.3,29.95,SW,227,1.0,1.0,67,0.00,,,0.00,Wunderground v.1.13,2013-08-11 03:00:00,
2013-08-10 23:30:00,63.9,54.7,29.95,SW,227,0.0,8.0,72,0.00,,,0.00,Wunderground v.1.13,2013-08-11 03:30:00,